San Angelo's Hourly Summary for Friday, July 6, 2018
Hour Temp
(f)
RH
(%)
Solar Rad.
(MJ/m2)
Rainfall
(in)
Wind
(mph)
7/6/2018 12:00 AM 81 54 0 0 0.15
7/6/2018 1:00 AM 75 60 0 0 0.21
7/6/2018 2:00 AM 73 70 0 0 0.9
7/6/2018 3:00 AM 72 73 0 0 1.04
7/6/2018 4:00 AM 72 72 0 0 1.95
7/6/2018 5:00 AM 71 75 0 0 2.09
7/6/2018 6:00 AM 70 77 0 0 3.39
7/6/2018 7:00 AM 69 79 0.01 0 2.49
7/6/2018 8:00 AM 71 72 0.3 0 2.48
7/6/2018 9:00 AM 73 73 0.32 0 3.22
7/6/2018 10:00 AM 74 72 0.53 0.04 3.9
7/6/2018 11:00 AM 77 67 0.83 0 5.13
7/6/2018 12:00 PM 79 58 1.62 0 4.66
7/6/2018 1:00 PM 84 50 3.1 0 3.02
7/6/2018 2:00 PM 87 46 3.16 0 5.44
7/6/2018 3:00 PM 89 38 3.22 0 6.51
7/6/2018 4:00 PM 91 34 2.87 0 7
7/6/2018 5:00 PM 93 33 2.44 0 6.37
7/6/2018 6:00 PM 93 28 1.66 0 5.82
7/6/2018 7:00 PM 94 28 1.02 0 8.05
7/6/2018 8:00 PM 84 33 0.12 0 7.76
7/6/2018 9:00 PM 79 55 0.04 0 4.39
7/6/2018 10:00 PM 82 53 0 0 3.58
7/6/2018 11:00 PM 82 52 0 0 1.87
Data Summary 79 56 21.24 0.04 3.81